WAT687 LFBH-LFLL
Flight info
| Callsign | WAT687 |
|---|---|
| Flight time | 0h 49m |
| Altitude | 34000 |
| Route | MAREN A25 ESUZE DCT CNA DCT LMG DCT BEBIX DCT VALKU DCT LABAL DCT LESPI |
| Aircraft | A20N/M-SDE2E3FGHIRWXY/LB1 |
Departure
| Time | 2026-05-05 12:28 |
|---|---|
| Airport | La Rochelle Île de Ré Airport (LFBH) |
Arrival
| Time | 2026-05-05 13:17 |
|---|---|
| Airport | Lyon Saint-Exupéry Airport (LFLL) |
| Time | Latitude | Longitude | Altitude | Speed | Heading |
|---|---|---|---|---|---|
| 2026-05-05 12:11 | 46.17656 | -1.19454 | 60 ft | 0 kts | 317° |
| 2026-05-05 12:24 | 46.17669 | -1.19472 | 61 ft | 10 kts | 314° |
| 2026-05-05 12:24 | 46.17732 | -1.19529 | 61 ft | 11 kts | 358° |
| 2026-05-05 12:25 | 46.17815 | -1.19529 | 61 ft | 12 kts | 2° |
| 2026-05-05 12:25 | 46.17896 | -1.19508 | 62 ft | 11 kts | 49° |
| 2026-05-05 12:25 | 46.17918 | -1.19371 | 62 ft | 20 kts | 88° |
| 2026-05-05 12:25 | 46.17913 | -1.19131 | 64 ft | 24 kts | 91° |
| 2026-05-05 12:26 | 46.17903 | -1.18886 | 66 ft | 23 kts | 95° |
| 2026-05-05 12:26 | 46.17909 | -1.18730 | 67 ft | 8 kts | 65° |
| 2026-05-05 12:26 | 46.17901 | -1.18731 | 67 ft | 6 kts | 263° |
| 2026-05-05 12:26 | 46.17900 | -1.18798 | 67 ft | 7 kts | 265° |
| 2026-05-05 12:27 | 46.17900 | -1.18815 | 67 ft | 0 kts | 271° |
| 2026-05-05 12:27 | 46.17902 | -1.18892 | 66 ft | 33 kts | 272° |
| 2026-05-05 12:27 | 46.17923 | -1.19593 | 61 ft | 104 kts | 274° |
| 2026-05-05 12:27 | 46.17965 | -1.20940 | 111 ft | 153 kts | 272° |
| 2026-05-05 12:28 | 46.18013 | -1.22396 | 760 ft | 149 kts | 273° |
| 2026-05-05 12:28 | 46.18102 | -1.23922 | 1292 ft | 158 kts | 274° |
| 2026-05-05 12:28 | 46.18119 | -1.25501 | 1916 ft | 162 kts | 255° |
| 2026-05-05 12:28 | 46.17422 | -1.26741 | 2507 ft | 172 kts | 207° |
| 2026-05-05 12:29 | 46.16228 | -1.26919 | 3161 ft | 180 kts | 177° |
| 2026-05-05 12:29 | 46.14946 | -1.26560 | 3607 ft | 199 kts | 169° |
| 2026-05-05 12:29 | 46.13547 | -1.25899 | 4044 ft | 220 kts | 161° |
| 2026-05-05 12:29 | 46.12072 | -1.25124 | 4482 ft | 237 kts | 163° |
| 2026-05-05 12:30 | 46.10450 | -1.24335 | 4932 ft | 254 kts | 163° |
| 2026-05-05 12:30 | 46.08733 | -1.23504 | 5413 ft | 271 kts | 163° |
| 2026-05-05 12:30 | 46.06921 | -1.22620 | 6136 ft | 278 kts | 163° |
| 2026-05-05 12:30 | 46.05095 | -1.21723 | 6973 ft | 281 kts | 162° |
| 2026-05-05 12:31 | 46.03256 | -1.20817 | 7811 ft | 283 kts | 162° |
| 2026-05-05 12:31 | 46.01389 | -1.19898 | 8629 ft | 286 kts | 162° |
| 2026-05-05 12:31 | 45.99511 | -1.18975 | 9439 ft | 289 kts | 162° |
| 2026-05-05 12:31 | 45.97605 | -1.18037 | 10241 ft | 292 kts | 162° |
| 2026-05-05 12:32 | 45.95641 | -1.17069 | 10755 ft | 306 kts | 162° |
| 2026-05-05 12:32 | 45.93585 | -1.16057 | 11130 ft | 324 kts | 162° |
| 2026-05-05 12:32 | 45.91373 | -1.14969 | 11484 ft | 342 kts | 162° |
| 2026-05-05 12:32 | 45.89070 | -1.13838 | 11890 ft | 357 kts | 162° |
| 2026-05-05 12:33 | 45.86697 | -1.12674 | 12590 ft | 362 kts | 162° |
| 2026-05-05 12:33 | 45.84343 | -1.11520 | 13364 ft | 364 kts | 162° |
| 2026-05-05 12:33 | 45.81958 | -1.10304 | 14094 ft | 367 kts | 157° |
| 2026-05-05 12:33 | 45.79861 | -1.08225 | 14754 ft | 372 kts | 133° |
| 2026-05-05 12:34 | 45.78569 | -1.05049 | 15463 ft | 376 kts | 108° |
| 2026-05-05 12:34 | 45.78012 | -1.01404 | 16194 ft | 378 kts | 102° |
| 2026-05-05 12:34 | 45.77495 | -0.97710 | 16859 ft | 381 kts | 103° |
| 2026-05-05 12:34 | 45.76923 | -0.93958 | 17525 ft | 384 kts | 104° |
| 2026-05-05 12:35 | 45.76326 | -0.90261 | 18176 ft | 386 kts | 104° |
| 2026-05-05 12:35 | 45.75699 | -0.86508 | 18820 ft | 388 kts | 104° |
| 2026-05-05 12:35 | 45.75067 | -0.82794 | 19424 ft | 391 kts | 104° |
| 2026-05-05 12:35 | 45.74414 | -0.79010 | 20020 ft | 394 kts | 104° |
| 2026-05-05 12:36 | 45.73748 | -0.75174 | 20618 ft | 397 kts | 104° |
| 2026-05-05 12:36 | 45.73080 | -0.71343 | 21201 ft | 400 kts | 104° |
| 2026-05-05 12:36 | 45.72404 | -0.67480 | 21770 ft | 402 kts | 104° |
| 2026-05-05 12:36 | 45.71730 | -0.63636 | 22288 ft | 405 kts | 105° |
| 2026-05-05 12:37 | 45.71035 | -0.59681 | 22807 ft | 409 kts | 104° |
| 2026-05-05 12:37 | 45.70340 | -0.55742 | 23336 ft | 411 kts | 104° |
| 2026-05-05 12:37 | 45.69648 | -0.51828 | 23836 ft | 413 kts | 104° |
| 2026-05-05 12:37 | 45.68937 | -0.47812 | 24317 ft | 416 kts | 104° |
| 2026-05-05 12:38 | 45.68225 | -0.43800 | 24750 ft | 418 kts | 105° |
| 2026-05-05 12:38 | 45.67507 | -0.39767 | 25128 ft | 422 kts | 105° |
| 2026-05-05 12:38 | 45.66835 | -0.35828 | 25465 ft | 425 kts | 102° |
| 2026-05-05 12:38 | 45.66459 | -0.31587 | 25822 ft | 430 kts | 95° |
| 2026-05-05 12:39 | 45.66502 | -0.27312 | 26157 ft | 434 kts | 87° |
| 2026-05-05 12:39 | 45.66917 | -0.23039 | 26476 ft | 439 kts | 82° |
| 2026-05-05 12:39 | 45.67440 | -0.18742 | 26795 ft | 441 kts | 82° |
| 2026-05-05 12:39 | 45.67981 | -0.14420 | 27100 ft | 444 kts | 82° |
| 2026-05-05 12:40 | 45.68520 | -0.10095 | 27391 ft | 447 kts | 82° |
| 2026-05-05 12:40 | 45.69060 | -0.05704 | 27683 ft | 450 kts | 82° |
| 2026-05-05 12:40 | 45.69602 | -0.01269 | 27963 ft | 452 kts | 82° |
| 2026-05-05 12:40 | 45.70135 | 0.03143 | 28251 ft | 454 kts | 82° |
| 2026-05-05 12:41 | 45.70670 | 0.07590 | 28516 ft | 456 kts | 82° |
| 2026-05-05 12:41 | 45.71201 | 0.12028 | 28799 ft | 458 kts | 82° |
| 2026-05-05 12:41 | 45.71733 | 0.16500 | 29138 ft | 457 kts | 82° |
| 2026-05-05 12:41 | 45.72263 | 0.20962 | 29467 ft | 458 kts | 82° |
| 2026-05-05 12:42 | 45.72798 | 0.25491 | 29793 ft | 458 kts | 82° |
| 2026-05-05 12:42 | 45.73320 | 0.29938 | 30114 ft | 458 kts | 82° |
| 2026-05-05 12:42 | 45.73844 | 0.34407 | 30434 ft | 458 kts | 82° |
| 2026-05-05 12:42 | 45.74366 | 0.38878 | 30742 ft | 458 kts | 82° |
| 2026-05-05 12:43 | 45.74887 | 0.43344 | 31024 ft | 457 kts | 82° |
| 2026-05-05 12:43 | 45.75408 | 0.47839 | 31281 ft | 458 kts | 82° |
| 2026-05-05 12:43 | 45.75924 | 0.52305 | 31528 ft | 458 kts | 82° |
| 2026-05-05 12:43 | 45.76442 | 0.56803 | 31761 ft | 458 kts | 82° |
| 2026-05-05 12:44 | 45.76960 | 0.61323 | 31995 ft | 459 kts | 82° |
| 2026-05-05 12:44 | 45.77469 | 0.65779 | 32199 ft | 460 kts | 83° |
| 2026-05-05 12:44 | 45.77987 | 0.70325 | 32371 ft | 461 kts | 83° |
| 2026-05-05 12:44 | 45.78495 | 0.74804 | 32534 ft | 463 kts | 83° |
| 2026-05-05 12:45 | 45.79013 | 0.79394 | 32707 ft | 465 kts | 83° |
| 2026-05-05 12:45 | 45.79521 | 0.83916 | 32870 ft | 466 kts | 83° |
| 2026-05-05 12:45 | 45.80038 | 0.88527 | 33027 ft | 467 kts | 83° |
| 2026-05-05 12:45 | 45.80610 | 0.93088 | 33176 ft | 469 kts | 80° |
| 2026-05-05 12:46 | 45.81360 | 0.97684 | 33329 ft | 471 kts | 77° |
| 2026-05-05 12:46 | 45.82272 | 1.02154 | 33466 ft | 474 kts | 74° |
| 2026-05-05 12:46 | 45.83374 | 1.06620 | 33601 ft | 476 kts | 70° |
| 2026-05-05 12:46 | 45.84656 | 1.11010 | 33739 ft | 478 kts | 67° |
| 2026-05-05 12:47 | 45.86047 | 1.15141 | 33873 ft | 480 kts | 65° |
| 2026-05-05 12:47 | 45.87552 | 1.19352 | 33903 ft | 481 kts | 64° |
| 2026-05-05 12:47 | 45.90614 | 1.27853 | 33908 ft | 480 kts | 65° |
| 2026-05-05 12:48 | 45.93143 | 1.36685 | 33909 ft | 478 kts | 73° |
| 2026-05-05 12:48 | 45.94788 | 1.45856 | 33904 ft | 476 kts | 81° |
| 2026-05-05 12:49 | 45.95559 | 1.55298 | 33900 ft | 474 kts | 88° |
| 2026-05-05 12:49 | 45.95916 | 1.64725 | 33897 ft | 474 kts | 89° |
| 2026-05-05 12:50 | 45.96261 | 1.74179 | 33893 ft | 473 kts | 89° |
| 2026-05-05 12:50 | 45.96607 | 1.83586 | 33892 ft | 474 kts | 89° |
| 2026-05-05 12:51 | 45.96949 | 1.92986 | 33892 ft | 475 kts | 89° |
| 2026-05-05 12:51 | 45.97290 | 2.02469 | 33888 ft | 475 kts | 89° |
| 2026-05-05 12:52 | 45.97622 | 2.11930 | 33890 ft | 476 kts | 89° |
| 2026-05-05 12:52 | 45.97947 | 2.21398 | 33892 ft | 476 kts | 89° |
| 2026-05-05 12:53 | 45.98265 | 2.30906 | 33890 ft | 476 kts | 89° |
| 2026-05-05 12:53 | 45.98573 | 2.40354 | 33891 ft | 475 kts | 89° |
| 2026-05-05 12:54 | 45.99019 | 2.54525 | 33899 ft | 476 kts | 89° |
| 2026-05-05 12:55 | 45.99308 | 2.64025 | 33897 ft | 476 kts | 89° |
| 2026-05-05 12:55 | 45.99451 | 2.68798 | 33556 ft | 477 kts | 90° |
| 2026-05-05 12:55 | 45.99590 | 2.73560 | 33028 ft | 477 kts | 90° |
| 2026-05-05 12:55 | 45.99725 | 2.78255 | 32351 ft | 478 kts | 90° |
| 2026-05-05 12:56 | 45.99899 | 2.83064 | 31599 ft | 478 kts | 88° |
| 2026-05-05 12:56 | 46.00146 | 2.87614 | 30906 ft | 477 kts | 88° |
| 2026-05-05 12:56 | 46.00415 | 2.92347 | 30155 ft | 477 kts | 88° |
| 2026-05-05 12:56 | 46.00683 | 2.97044 | 29367 ft | 476 kts | 88° |
| 2026-05-05 12:57 | 46.00948 | 3.01760 | 28554 ft | 475 kts | 88° |
| 2026-05-05 12:57 | 46.01208 | 3.06446 | 27942 ft | 469 kts | 88° |
| 2026-05-05 12:57 | 46.01464 | 3.11097 | 27418 ft | 463 kts | 88° |
| 2026-05-05 12:57 | 46.01712 | 3.15657 | 26888 ft | 457 kts | 88° |
| 2026-05-05 12:58 | 46.01954 | 3.20173 | 26357 ft | 452 kts | 88° |
| 2026-05-05 12:58 | 46.02190 | 3.24623 | 25838 ft | 447 kts | 88° |
| 2026-05-05 12:58 | 46.02422 | 3.29031 | 25320 ft | 442 kts | 88° |
| 2026-05-05 12:58 | 46.02689 | 3.33411 | 24764 ft | 439 kts | 86° |
| 2026-05-05 12:59 | 46.03111 | 3.37711 | 24252 ft | 436 kts | 83° |
| 2026-05-05 12:59 | 46.03689 | 3.41991 | 23690 ft | 432 kts | 81° |
| 2026-05-05 12:59 | 46.04297 | 3.46190 | 23158 ft | 428 kts | 81° |
| 2026-05-05 13:00 | 46.05504 | 3.54479 | 22111 ft | 420 kts | 81° |
| 2026-05-05 13:00 | 46.06092 | 3.58555 | 21602 ft | 416 kts | 81° |
| 2026-05-05 13:01 | 46.07830 | 3.70716 | 20020 ft | 407 kts | 81° |
| 2026-05-05 13:01 | 46.08393 | 3.74686 | 19494 ft | 405 kts | 81° |
| 2026-05-05 13:01 | 46.08947 | 3.78591 | 18976 ft | 402 kts | 81° |
| 2026-05-05 13:01 | 46.09499 | 3.82503 | 18467 ft | 399 kts | 81° |
| 2026-05-05 13:02 | 46.10052 | 3.86430 | 17973 ft | 396 kts | 81° |
| 2026-05-05 13:02 | 46.10590 | 3.90272 | 17457 ft | 393 kts | 81° |
| 2026-05-05 13:02 | 46.10970 | 3.94128 | 16912 ft | 388 kts | 90° |
| 2026-05-05 13:02 | 46.10827 | 3.97985 | 16381 ft | 382 kts | 102° |
| 2026-05-05 13:03 | 46.10216 | 4.01691 | 15850 ft | 378 kts | 109° |
| 2026-05-05 13:03 | 46.09472 | 4.05269 | 15322 ft | 376 kts | 110° |
| 2026-05-05 13:03 | 46.08704 | 4.08863 | 14808 ft | 375 kts | 110° |
| 2026-05-05 13:03 | 46.07952 | 4.12414 | 14281 ft | 373 kts | 109° |
| 2026-05-05 13:04 | 46.07195 | 4.16008 | 13765 ft | 371 kts | 109° |
| 2026-05-05 13:04 | 46.06464 | 4.19501 | 13265 ft | 369 kts | 109° |
| 2026-05-05 13:04 | 46.05726 | 4.23029 | 12754 ft | 367 kts | 109° |
| 2026-05-05 13:04 | 46.04990 | 4.26551 | 12254 ft | 365 kts | 109° |
| 2026-05-05 13:05 | 46.04259 | 4.30051 | 11747 ft | 363 kts | 109° |
| 2026-05-05 13:05 | 46.03535 | 4.33520 | 11248 ft | 361 kts | 109° |
| 2026-05-05 13:05 | 46.02824 | 4.36917 | 10795 ft | 358 kts | 109° |
| 2026-05-05 13:05 | 46.02107 | 4.40339 | 10541 ft | 347 kts | 109° |
| 2026-05-05 13:06 | 46.01430 | 4.43572 | 10389 ft | 334 kts | 109° |
| 2026-05-05 13:06 | 46.00766 | 4.46735 | 10246 ft | 322 kts | 109° |
| 2026-05-05 13:06 | 46.00104 | 4.49520 | 10101 ft | 309 kts | 115° |
| 2026-05-05 13:06 | 45.99189 | 4.52232 | 9973 ft | 295 kts | 122° |
| 2026-05-05 13:07 | 45.98150 | 4.54715 | 9769 ft | 287 kts | 124° |
| 2026-05-05 13:07 | 45.97086 | 4.57157 | 9391 ft | 286 kts | 124° |
| 2026-05-05 13:07 | 45.96137 | 4.59629 | 9015 ft | 288 kts | 110° |
| 2026-05-05 13:07 | 45.95956 | 4.62478 | 8663 ft | 291 kts | 82° |
| 2026-05-05 13:08 | 45.96452 | 4.65296 | 8332 ft | 290 kts | 76° |
| 2026-05-05 13:08 | 45.97019 | 4.68103 | 7988 ft | 289 kts | 76° |
| 2026-05-05 13:08 | 45.97562 | 4.70846 | 7665 ft | 287 kts | 76° |
| 2026-05-05 13:08 | 45.98091 | 4.73598 | 7344 ft | 285 kts | 76° |
| 2026-05-05 13:09 | 45.98603 | 4.76326 | 7009 ft | 283 kts | 76° |
| 2026-05-05 13:09 | 45.99102 | 4.79012 | 6694 ft | 281 kts | 76° |
| 2026-05-05 13:09 | 45.99606 | 4.81742 | 6370 ft | 278 kts | 76° |
| 2026-05-05 13:09 | 46.00095 | 4.84385 | 6064 ft | 276 kts | 76° |
| 2026-05-05 13:10 | 46.00446 | 4.87073 | 5736 ft | 273 kts | 87° |
| 2026-05-05 13:10 | 46.00444 | 4.89799 | 5424 ft | 270 kts | 95° |
| 2026-05-05 13:10 | 46.00291 | 4.92478 | 5113 ft | 268 kts | 97° |
| 2026-05-05 13:10 | 46.00116 | 4.95125 | 4791 ft | 266 kts | 97° |
| 2026-05-05 13:11 | 45.99954 | 4.97666 | 4504 ft | 264 kts | 97° |
| 2026-05-05 13:11 | 45.99795 | 5.00254 | 4325 ft | 256 kts | 97° |
| 2026-05-05 13:11 | 45.99644 | 5.02746 | 4248 ft | 243 kts | 100° |
| 2026-05-05 13:11 | 45.99064 | 5.04923 | 4127 ft | 232 kts | 131° |
| 2026-05-05 13:12 | 45.97796 | 5.06302 | 3880 ft | 229 kts | 162° |
| 2026-05-05 13:12 | 45.96269 | 5.06673 | 3606 ft | 225 kts | 178° |
| 2026-05-05 13:12 | 45.94707 | 5.06754 | 3329 ft | 223 kts | 179° |
| 2026-05-05 13:12 | 45.93156 | 5.06843 | 3075 ft | 221 kts | 178° |
| 2026-05-05 13:13 | 45.91614 | 5.06980 | 3010 ft | 221 kts | 176° |
| 2026-05-05 13:13 | 45.90076 | 5.07151 | 3008 ft | 221 kts | 176° |
| 2026-05-05 13:13 | 45.88552 | 5.07338 | 3004 ft | 215 kts | 175° |
| 2026-05-05 13:13 | 45.87128 | 5.07516 | 2995 ft | 200 kts | 175° |
| 2026-05-05 13:14 | 45.85737 | 5.07690 | 2997 ft | 196 kts | 175° |
| 2026-05-05 13:14 | 45.84367 | 5.07859 | 2865 ft | 197 kts | 175° |
| 2026-05-05 13:14 | 45.83044 | 5.08021 | 2702 ft | 185 kts | 175° |
| 2026-05-05 13:14 | 45.81804 | 5.08174 | 2425 ft | 172 kts | 175° |
| 2026-05-05 13:15 | 45.80659 | 5.08315 | 2193 ft | 158 kts | 176° |
| 2026-05-05 13:15 | 45.79618 | 5.08443 | 1970 ft | 143 kts | 175° |
| 2026-05-05 13:15 | 45.78679 | 5.08557 | 1767 ft | 130 kts | 175° |
| 2026-05-05 13:15 | 45.77785 | 5.08700 | 1631 ft | 130 kts | 176° |
| 2026-05-05 13:16 | 45.76873 | 5.08815 | 1512 ft | 129 kts | 177° |
| 2026-05-05 13:16 | 45.75967 | 5.08854 | 1323 ft | 130 kts | 175° |
| 2026-05-05 13:16 | 45.75078 | 5.08986 | 1093 ft | 129 kts | 176° |
| 2026-05-05 13:16 | 45.74186 | 5.09123 | 926 ft | 130 kts | 176° |
| 2026-05-05 13:17 | 45.73278 | 5.09215 | 818 ft | 128 kts | 174° |
| 2026-05-05 13:17 | 45.72454 | 5.09322 | 808 ft | 86 kts | 175° |
| 2026-05-05 13:17 | 45.72104 | 5.09367 | 816 ft | 35 kts | 173° |
| 2026-05-05 13:17 | 45.71877 | 5.09368 | 819 ft | 30 kts | 185° |
| 2026-05-05 13:18 | 45.71694 | 5.09288 | 819 ft | 18 kts | 219° |
| 2026-05-05 13:18 | 45.71634 | 5.09127 | 816 ft | 18 kts | 261° |
| 2026-05-05 13:18 | 45.71618 | 5.08939 | 814 ft | 19 kts | 265° |
| 2026-05-05 13:18 | 45.71606 | 5.08735 | 810 ft | 21 kts | 268° |
| 2026-05-05 13:19 | 45.71602 | 5.08567 | 807 ft | 9 kts | 266° |
| 2026-05-05 13:19 | 45.71652 | 5.08501 | 804 ft | 12 kts | 352° |
| 2026-05-05 13:19 | 45.71743 | 5.08486 | 804 ft | 13 kts | 354° |
| 2026-05-05 13:19 | 45.71843 | 5.08474 | 804 ft | 14 kts | 355° |
| 2026-05-05 13:20 | 45.71950 | 5.08460 | 802 ft | 16 kts | 355° |
| 2026-05-05 13:20 | 45.72074 | 5.08446 | 800 ft | 18 kts | 355° |
| 2026-05-05 13:20 | 45.72187 | 5.08432 | 799 ft | 13 kts | 355° |
| 2026-05-05 13:20 | 45.72253 | 5.08377 | 797 ft | 12 kts | 279° |
| 2026-05-05 13:21 | 45.72289 | 5.08272 | 795 ft | 9 kts | 317° |
| 2026-05-05 13:21 | 45.72306 | 5.08212 | 795 ft | 4 kts | 253° |
| 2026-05-05 13:21 | 45.72295 | 5.08165 | 795 ft | 3 kts | 253° |
| 2026-05-05 13:21 | 45.72290 | 5.08147 | 795 ft | 0 kts | 251° |